Terminal Aerodrome Forecast
Issued by NWS

Home | Current Version | Previous Version | Text Only | Print | Product List | Glossary On
Versions: 1 2 3 4 5 6 7 8 9 10 11 12
000
FTUS46 KSTO 231100
TAFRDD
TAF
KRDD 231121Z 2312/2412 VRB03KT P6SM BKN250
     FM232100 17014G20KT P6SM BKN200
     FM240300 18010KT P6SM SCT070 BKN200=

USA.gov is the U.S. government's official web portal to all federal, state and local government web resources and services.